Time;durP1;ratioP1;P1;durP2;ratioP2;P2;SDS_P1;SDS_P2;PMS_P1;PMS_P2;Temp;Humidity;BMP_temperature;BMP_pressure;BME280_temperature;BME280_humidity;BME280_pressure;Samples;Min_cycle;Max_cycle;Signal;HPM_P1;HPM_P2
2021/06/15 00:01:04;;;;;;;9.73;7.43;;;9.50;99.90;;;;;;5053472;28;20082;-73
2021/06/15 00:03:29;;;;;;;10.50;6.68;;;9.50;99.90;;;;;;5053619;28;20486;-73
2021/06/15 00:05:55;;;;;;;8.55;7.13;;;9.40;99.90;;;;;;5052169;28;20112;-73
2021/06/15 00:08:21;;;;;;;9.32;6.65;;;9.30;99.90;;;;;;5053250;28;20017;-73
2021/06/15 00:10:47;;;;;;;9.85;6.50;;;9.30;99.90;;;;;;5053222;28;20032;-73
2021/06/15 00:13:13;;;;;;;7.40;6.03;;;9.20;99.90;;;;;;5053323;28;20072;-73
2021/06/15 00:15:47;;;;;;;8.35;6.43;;;9.10;99.90;;;;;;5037728;28;20475;-73
2021/06/15 00:18:13;;;;;;;9.27;6.57;;;9.10;99.90;;;;;;5032095;28;20467;-73
2021/06/15 00:20:39;;;;;;;7.18;5.90;;;9.00;99.90;;;;;;5032103;28;20459;-73
2021/06/15 00:23:05;;;;;;;11.07;6.10;;;9.00;99.90;;;;;;5033243;28;20036;-73
2021/06/15 00:25:31;;;;;;;6.75;6.05;;;9.00;99.90;;;;;;5033254;28;20536;-73
2021/06/15 00:27:56;;;;;;;8.95;6.80;;;9.10;99.90;;;;;;5048100;28;20437;-73
2021/06/15 00:30:22;;;;;;;10.13;5.60;;;9.00;99.90;;;;;;5053385;28;20443;-73
2021/06/15 00:32:50;;;;;;;7.88;5.88;;;9.00;99.90;;;;;;5053147;28;20013;-73
2021/06/15 00:35:16;;;;;;;11.38;6.68;;;9.00;99.90;;;;;;5052917;28;20072;-73
2021/06/15 00:37:42;;;;;;;8.85;5.70;;;8.90;99.90;;;;;;5053098;28;20025;-73
2021/06/15 00:40:09;;;;;;;10.10;6.47;;;8.90;99.90;;;;;;5051575;28;20025;-73
2021/06/15 00:42:34;;;;;;;10.40;6.60;;;8.80;99.90;;;;;;5053138;28;20437;-73
2021/06/15 00:45:00;;;;;;;11.18;7.32;;;8.80;99.90;;;;;;5052973;28;20033;-73
2021/06/15 00:47:26;;;;;;;8.52;6.68;;;8.80;99.90;;;;;;5052919;28;20017;-73
2021/06/15 00:49:54;;;;;;;8.90;6.50;;;8.80;99.90;;;;;;5052861;28;20017;-73
2021/06/15 00:52:20;;;;;;;8.65;6.80;;;8.80;99.90;;;;;;5052863;28;20021;-73
2021/06/15 00:54:46;;;;;;;11.88;6.47;;;8.70;99.90;;;;;;5051755;28;20398;-73
2021/06/15 00:57:17;;;;;;;8.38;6.15;;;8.80;99.90;;;;;;5051174;28;20037;-73
2021/06/15 00:59:43;;;;;;;8.38;6.00;;;8.80;99.90;;;;;;5051457;28;20367;-73
2021/06/15 01:02:09;;;;;;;10.52;6.50;;;8.80;99.90;;;;;;5052703;28;20151;-73
2021/06/15 01:04:35;;;;;;;10.95;6.10;;;8.70;99.90;;;;;;5034053;28;20021;-73
2021/06/15 01:07:09;;;;;;;20.48;8.40;;;8.70;99.90;;;;;;5031392;28;20026;-73
2021/06/15 01:09:51;;;;;;;8.23;5.82;;;8.70;99.90;;;;;;5032869;28;20025;-73
2021/06/15 01:12:44;;;;;;;9.23;7.05;;;8.60;99.90;;;;;;5031476;28;20026;-73
2021/06/15 01:15:16;;;;;;;10.88;7.07;;;8.50;99.90;;;;;;5031222;28;20026;-73
2021/06/15 01:18:15;;;;;;;8.77;6.93;;;8.50;99.90;;;;;;5032846;28;20029;-73
2021/06/15 01:20:46;;;;;;;9.48;6.63;;;8.40;99.90;;;;;;5032832;28;20033;-73
2021/06/15 01:23:49;;;;;;;10.98;7.40;;;8.30;99.90;;;;;;5032473;28;20025;-73
2021/06/15 01:26:15;;;;;;;7.90;6.20;;;8.30;99.90;;;;;;5032742;28;20053;-73
2021/06/15 01:28:48;;;;;;;11.00;6.65;;;8.30;99.90;;;;;;5032711;28;20022;-73
2021/06/15 01:31:39;;;;;;;8.63;5.90;;;8.30;99.90;;;;;;5032621;28;20026;-73
2021/06/15 01:34:21;;;;;;;9.05;7.40;;;8.30;99.90;;;;;;5032514;28;20083;-73
2021/06/15 01:37:10;;;;;;;11.52;6.90;;;8.20;99.90;;;;;;5032583;28;20084;-73
2021/06/15 01:39:44;;;;;;;12.77;7.30;;;8.20;99.90;;;;;;5034853;28;20026;-73
2021/06/15 01:42:20;;;;;;;9.88;7.45;;;8.20;99.90;;;;;;5036335;28;20068;-73
2021/06/15 01:44:50;;;;;;;9.43;7.47;;;8.10;99.90;;;;;;5036473;28;20112;-73
2021/06/15 01:47:16;;;;;;;15.88;7.07;;;8.10;99.90;;;;;;5036257;28;20112;-73
2021/06/15 01:49:53;;;;;;;13.05;8.23;;;8.20;99.90;;;;;;5036188;28;20424;-73
2021/06/15 01:52:23;;;;;;;15.23;8.05;;;8.20;99.90;;;;;;5036198;28;20017;-73
2021/06/15 01:54:49;;;;;;;15.13;7.95;;;8.20;99.90;;;;;;5036019;28;20076;-73
2021/06/15 01:57:18;;;;;;;12.63;7.90;;;8.30;99.90;;;;;;5035906;28;20029;-73
2021/06/15 01:59:46;;;;;;;10.68;7.32;;;8.40;99.90;;;;;;5036019;28;20045;-73
2021/06/15 02:02:13;;;;;;;13.95;8.27;;;8.50;99.90;;;;;;5035874;28;20025;-73
2021/06/15 02:04:46;;;;;;;10.88;8.25;;;8.50;99.90;;;;;;5052591;28;20021;-73
2021/06/15 02:07:14;;;;;;;;;;;8.60;99.90;;;;;;5052940;28;20368;-73
2021/06/15 02:09:45;;;;;;;17.23;9.77;;;8.60;99.90;;;;;;5035803;28;19928;-73
2021/06/15 02:12:11;;;;;;;12.88;9.00;;;8.50;99.90;;;;;;5035757;28;20025;-73
2021/06/15 02:14:37;;;;;;;11.55;9.35;;;8.40;99.90;;;;;;5041101;28;20386;-73
2021/06/15 02:17:05;;;;;;;11.68;9.80;;;8.30;99.90;;;;;;5055285;28;20146;-74
2021/06/15 02:19:32;;;;;;;11.32;8.73;;;8.20;99.90;;;;;;5055671;28;20036;-73
2021/06/15 02:22:19;;;;;;;15.70;8.52;;;8.20;99.90;;;;;;5055417;28;20026;-73
2021/06/15 02:24:48;;;;;;;14.55;9.38;;;8.20;99.90;;;;;;5054021;28;20100;-73
2021/06/15 02:27:17;;;;;;;13.57;10.02;;;8.10;99.90;;;;;;5054119;28;20029;-73
2021/06/15 02:29:42;;;;;;;14.68;8.85;;;8.00;99.90;;;;;;5053922;28;20033;-73
2021/06/15 02:32:11;;;;;;;11.00;7.55;;;8.00;99.90;;;;;;5055277;28;20104;-73
2021/06/15 02:34:44;;;;;;;11.88;9.18;;;7.90;99.90;;;;;;5055249;28;20101;-73
2021/06/15 02:37:13;;;;;;;11.43;7.47;;;7.80;99.90;;;;;;5049197;28;20065;-73
2021/06/15 02:39:39;;;;;;;18.15;9.95;;;7.70;99.90;;;;;;5035284;28;20025;-73
2021/06/15 02:42:13;;;;;;;11.32;8.50;;;7.60;99.90;;;;;;5049126;28;20025;-73
2021/06/15 02:44:42;;;;;;;19.13;8.95;;;7.60;99.90;;;;;;5053877;28;20112;-73
2021/06/15 02:47:09;;;;;;;12.63;8.98;;;7.60;99.90;;;;;;5054808;28;20029;-73
2021/06/15 02:49:57;;;;;;;13.82;8.70;;;7.60;99.90;;;;;;5053701;28;20029;-73
2021/06/15 02:52:33;;;;;;;9.65;7.28;;;7.60;99.90;;;;;;5055059;28;20060;-73
2021/06/15 02:55:23;;;;;;;15.40;9.13;;;7.50;99.90;;;;;;5054104;28;20021;-73
2021/06/15 02:57:49;;;;;;;12.43;9.27;;;7.50;99.90;;;;;;5035029;28;20034;-73
2021/06/15 03:00:15;;;;;;;12.80;9.50;;;7.50;99.90;;;;;;5044999;28;20032;-73
2021/06/15 03:02:41;;;;;;;12.20;8.77;;;7.60;99.90;;;;;;5053517;28;20021;-73
2021/06/15 03:05:14;;;;;;;12.85;9.43;;;7.60;99.90;;;;;;5053315;28;20021;-73
2021/06/15 03:07:41;;;;;;;11.55;8.98;;;7.60;99.90;;;;;;5054671;28;20051;-73
2021/06/15 03:10:08;;;;;;;16.55;9.80;;;7.60;99.90;;;;;;5054518;28;20017;-73
2021/06/15 03:12:54;;;;;;;14.45;9.85;;;7.70;99.90;;;;;;5054386;28;20418;-73
2021/06/15 03:15:30;;;;;;;16.58;9.88;;;7.60;99.90;;;;;;5054284;28;20021;-73
2021/06/15 03:18:05;;;;;;;14.75;9.10;;;7.70;99.90;;;;;;5054280;28;20108;-73
2021/06/15 03:20:32;;;;;;;13.48;9.45;;;7.80;99.90;;;;;;5053063;28;20059;-73
2021/06/15 03:23:05;;;;;;;12.25;7.53;;;7.90;99.90;;;;;;5054307;28;20017;-73
2021/06/15 03:25:33;;;;;;;12.88;9.05;;;8.00;99.90;;;;;;5050507;28;20121;-73
2021/06/15 03:28:09;;;;;;;11.25;8.10;;;8.20;99.90;;;;;;5034288;28;20022;-72
2021/06/15 03:30:36;;;;;;;11.50;8.25;;;8.40;99.90;;;;;;5047541;28;20384;-73
2021/06/15 03:33:06;;;;;;;9.48;7.22;;;8.60;99.90;;;;;;5054134;28;20017;-73
2021/06/15 03:35:35;;;;;;;13.10;7.78;;;8.90;99.90;;;;;;5052777;28;20035;-73
2021/06/15 03:38:03;;;;;;;15.23;7.82;;;9.30;99.90;;;;;;5054089;28;20013;-73
2021/06/15 03:40:33;;;;;;;20.92;9.35;;;9.60;99.90;;;;;;5054024;28;20032;-72
2021/06/15 03:43:00;;;;;;;15.57;8.48;;;9.90;98.70;;;;;;5051877;28;20025;-74
2021/06/15 03:45:33;;;;;;;16.20;7.88;;;10.10;96.00;;;;;;5053784;28;20025;-74
2021/06/15 03:48:01;;;;;;;12.98;8.00;;;10.30;95.00;;;;;;5053912;28;20106;-73
2021/06/15 03:50:27;;;;;;;13.77;8.02;;;10.60;91.90;;;;;;5053359;28;20605;-73
2021/06/15 03:52:56;;;;;;;14.13;8.43;;;10.80;90.20;;;;;;5054106;28;20025;-73
2021/06/15 03:55:23;;;;;;;14.18;8.07;;;11.10;87.90;;;;;;5053418;28;20021;-74
2021/06/15 03:57:49;;;;;;;11.57;8.30;;;11.30;88.10;;;;;;5052661;28;20118;-73
2021/06/15 04:00:18;;;;;;;11.38;7.35;;;11.60;86.60;;;;;;5052156;28;20540;-73
2021/06/15 04:02:46;;;;;;;16.75;7.47;;;11.70;87.70;;;;;;5053094;28;20501;-73
2021/06/15 04:05:14;;;;;;;22.83;12.07;;;11.90;88.60;;;;;;5053487;28;20415;-73
2021/06/15 04:07:43;;;;;;;13.38;7.53;;;12.10;86.20;;;;;;5053619;28;20025;-73
2021/06/15 04:10:10;;;;;;;9.13;5.72;;;12.20;87.00;;;;;;5053248;28;20158;-74
2021/06/15 04:12:36;;;;;;;11.02;6.75;;;12.40;87.30;;;;;;5047350;28;20075;-74
2021/06/15 04:15:03;;;;;;;12.68;7.35;;;12.60;87.80;;;;;;5053311;28;20021;-73
2021/06/15 04:17:31;;;;;;;10.80;7.65;;;12.80;86.50;;;;;;5053357;28;20029;-73
2021/06/15 04:19:58;;;;;;;11.95;6.45;;;13.00;86.40;;;;;;5038227;28;20049;-73
2021/06/15 04:22:35;;;;;;;11.98;7.30;;;13.10;86.50;;;;;;5047708;28;20090;-74
2021/06/15 04:25:10;;;;;;;8.93;6.75;;;13.30;86.50;;;;;;5051606;28;20017;-74
2021/06/15 04:27:36;;;;;;;12.18;7.10;;;13.40;86.00;;;;;;5052014;28;20113;-74
2021/06/15 04:30:04;;;;;;;10.13;6.53;;;13.60;85.80;;;;;;5051756;28;20462;-74
2021/06/15 04:32:57;;;;;;;12.50;7.32;;;13.70;85.70;;;;;;5053218;28;20090;-74
2021/06/15 04:35:46;;;;;;;6.55;5.55;;;13.80;84.80;;;;;;5053017;28;20505;-74
2021/06/15 04:38:17;;;;;;;9.65;6.78;;;13.90;86.10;;;;;;5053039;28;20136;-71
2021/06/15 04:40:47;;;;;;;9.48;6.90;;;13.90;89.40;;;;;;5045557;28;20014;-71
2021/06/15 04:43:33;;;;;;;11.38;7.03;;;13.90;90.50;;;;;;5033012;28;20117;-71
2021/06/15 04:46:25;;;;;;;11.05;6.78;;;13.90;89.70;;;;;;5033370;28;20467;-71
2021/06/15 04:49:00;;;;;;;9.80;6.68;;;14.00;88.30;;;;;;5027125;28;20026;-71
2021/06/15 04:51:27;;;;;;;12.70;6.50;;;14.20;86.60;;;;;;5033101;28;20105;-71
2021/06/15 04:53:58;;;;;;;10.80;6.72;;;14.40;85.20;;;;;;5043316;28;20029;-71
2021/06/15 04:56:26;;;;;;;10.50;6.38;;;14.50;84.30;;;;;;5052669;28;20043;-71
2021/06/15 04:58:53;;;;;;;12.45;6.25;;;14.70;83.90;;;;;;5051022;28;20025;-71
2021/06/15 05:01:19;;;;;;;9.60;6.55;;;14.70;81.40;;;;;;5042495;28;20026;-71
2021/06/15 05:03:46;;;;;;;11.43;6.57;;;14.80;79.00;;;;;;5032941;28;20389;-71
2021/06/15 05:06:13;;;;;;;10.65;6.85;;;15.00;77.40;;;;;;5049420;28;20022;-71
2021/06/15 05:08:46;;;;;;;12.70;6.75;;;15.00;78.80;;;;;;5051436;28;20021;-71
2021/06/15 05:11:13;;;;;;;8.63;6.57;;;15.00;77.10;;;;;;5042730;28;20025;-71
2021/06/15 05:13:40;;;;;;;13.80;8.20;;;15.10;79.20;;;;;;5033519;28;20025;-72
2021/06/15 05:16:08;;;;;;;12.93;7.30;;;15.20;80.40;;;;;;5037125;28;20032;-71
2021/06/15 05:18:35;;;;;;;8.32;6.95;;;15.20;78.00;;;;;;5044547;28;20119;-72
2021/06/15 05:21:06;;;;;;;11.93;6.35;;;15.30;78.20;;;;;;5044345;28;20120;-70
2021/06/15 05:23:57;;;;;;;11.40;6.53;;;15.30;78.30;;;;;;5043325;28;20076;-73
2021/06/15 05:26:23;;;;;;;10.45;6.10;;;15.40;78.90;;;;;;5065452;28;20025;-74
2021/06/15 05:28:51;;;;;;;9.13;5.68;;;15.60;76.50;;;;;;5035430;28;21528;-74
2021/06/15 05:31:16;;;;;;;9.05;6.18;;;15.70;73.80;;;;;;5047852;28;20075;-74
2021/06/15 05:33:42;;;;;;;11.55;6.57;;;15.80;72.70;;;;;;5042304;28;20025;-74
2021/06/15 05:36:08;;;;;;;16.00;6.43;;;15.90;73.10;;;;;;5036209;28;20044;-74
2021/06/15 05:38:35;;;;;;;9.63;6.28;;;16.00;70.70;;;;;;5039220;28;20489;-74
2021/06/15 05:41:01;;;;;;;7.32;5.55;;;16.20;70.70;;;;;;5038071;28;20029;-74
2021/06/15 05:43:26;;;;;;;8.35;5.47;;;16.30;70.10;;;;;;5043194;28;20097;-74
2021/06/15 05:45:52;;;;;;;7.80;5.57;;;16.40;71.10;;;;;;5035808;28;20479;-74
2021/06/15 05:48:18;;;;;;;6.93;4.57;;;16.60;69.90;;;;;;5034810;28;20052;-74
2021/06/15 05:50:43;;;;;;;8.52;5.05;;;16.70;67.80;;;;;;5036790;28;20033;-74
2021/06/15 05:53:10;;;;;;;6.82;5.35;;;16.80;69.30;;;;;;5046747;28;20025;-74
2021/06/15 05:55:35;;;;;;;9.40;5.85;;;16.90;69.00;;;;;;5041871;28;20029;-75
2021/06/15 05:58:01;;;;;;;9.65;5.95;;;17.10;69.40;;;;;;5039510;28;20032;-73
2021/06/15 06:00:27;;;;;;;9.88;6.43;;;17.20;68.70;;;;;;5038330;28;20429;-74
2021/06/15 06:02:53;;;;;;;9.93;5.70;;;17.30;66.20;;;;;;5041533;28;20266;-74
2021/06/15 06:10:28;;;;;;;12.25;5.93;;;17.70;68.00;;;;;;5040558;28;20040;-74
2021/06/15 06:12:54;;;;;;;10.30;6.47;;;17.90;69.00;;;;;;5039418;28;20025;-75
2021/06/15 06:15:20;;;;;;;10.95;6.22;;;18.00;70.10;;;;;;5046318;28;20032;-74
2021/06/15 06:17:46;;;;;;;8.60;6.35;;;18.10;68.10;;;;;;5039694;28;20075;-74
2021/06/15 06:20:14;;;;;;;10.13;5.75;;;18.30;65.60;;;;;;5043246;28;20024;-74
2021/06/15 06:22:40;;;;;;;10.90;6.50;;;18.40;64.90;;;;;;5042653;28;20021;-72
2021/06/15 06:25:09;;;;;;;15.70;7.45;;;18.60;65.80;;;;;;5049812;28;20029;-75
2021/06/15 06:27:35;;;;;;;9.07;5.65;;;18.90;66.30;;;;;;5048730;28;20032;-75
2021/06/15 06:30:01;;;;;;;9.35;5.53;;;19.00;63.60;;;;;;5043387;28;20025;-75
2021/06/15 06:32:27;;;;;;;10.50;5.68;;;19.00;61.00;;;;;;5040813;28;20399;-74
2021/06/15 06:34:53;;;;;;;7.10;5.18;;;19.10;59.50;;;;;;5045619;28;20029;-74
2021/06/15 06:37:18;;;;;;;5.95;4.50;;;19.30;58.90;;;;;;5050328;28;20029;-74
2021/06/15 06:39:44;;;;;;;4.70;3.75;;;19.30;57.50;;;;;;5050564;28;20079;-75
2021/06/15 06:42:10;;;;;;;4.75;3.30;;;19.50;56.70;;;;;;5052461;28;20505;-75
2021/06/15 06:44:35;;;;;;;6.03;3.75;;;19.80;56.00;;;;;;5036098;28;108499;-74
2021/06/15 06:47:01;;;;;;;6.53;3.92;;;19.90;55.00;;;;;;5034331;28;20493;-74
2021/06/15 06:49:27;;;;;;;3.80;3.28;;;20.10;55.20;;;;;;5035111;28;20033;-74
2021/06/15 06:51:53;;;;;;;5.25;3.70;;;20.20;54.40;;;;;;5038713;28;20100;-75
2021/06/15 06:54:19;;;;;;;6.97;3.45;;;20.40;53.90;;;;;;5035020;28;20056;-74
2021/06/15 06:56:44;;;;;;;3.25;2.95;;;20.50;53.30;;;;;;5041876;28;20375;-72
2021/06/15 06:59:10;;;;;;;11.30;3.30;;;20.70;51.70;;;;;;5045203;28;20033;-72
2021/06/15 07:01:35;;;;;;;3.67;2.75;;;20.80;50.40;;;;;;5043797;28;20025;-72
2021/06/15 07:04:01;;;;;;;6.38;2.92;;;21.10;50.90;;;;;;5046036;28;20521;-72
2021/06/15 07:06:27;;;;;;;6.75;3.17;;;21.20;50.80;;;;;;5045837;28;20115;-72
2021/06/15 07:08:53;;;;;;;4.43;2.92;;;21.30;50.50;;;;;;5036988;28;20026;-72
2021/06/15 07:11:19;;;;;;;4.50;2.28;;;21.40;49.70;;;;;;5032797;28;20021;-72
2021/06/15 07:13:45;;;;;;;2.55;2.22;;;21.40;48.70;;;;;;5034176;28;20099;-72
2021/06/15 07:16:11;;;;;;;7.13;2.95;;;21.40;48.50;;;;;;5045284;28;20065;-72
2021/06/15 07:18:39;;;;;;;5.50;2.60;;;21.50;46.90;;;;;;5050677;28;20366;-72
2021/06/15 07:21:06;;;;;;;3.28;2.38;;;21.60;47.00;;;;;;5051362;28;20531;-72
2021/06/15 07:23:32;;;;;;;3.85;3.00;;;21.60;46.60;;;;;;5036606;28;20067;-72
2021/06/15 07:25:58;;;;;;;4.72;2.38;;;21.60;46.90;;;;;;5033761;28;20073;-73
2021/06/15 07:28:24;;;;;;;5.28;2.47;;;21.60;46.40;;;;;;5045366;28;20029;-72
2021/06/15 07:30:49;;;;;;;3.63;2.53;;;21.60;45.30;;;;;;5042446;28;20041;-72
2021/06/15 07:33:15;;;;;;;5.80;2.92;;;21.70;44.90;;;;;;5039881;28;20078;-72
2021/06/15 07:35:41;;;;;;;4.25;2.20;;;21.70;45.00;;;;;;5042591;28;20390;-72
2021/06/15 07:38:07;;;;;;;3.95;2.88;;;22.00;45.40;;;;;;5044669;28;20017;-72
2021/06/15 07:40:32;;;;;;;6.80;3.13;;;22.10;45.20;;;;;;5045646;28;20191;-72
2021/06/15 07:42:59;;;;;;;4.38;2.65;;;22.10;44.10;;;;;;5049572;28;20124;-72
2021/06/15 07:45:28;;;;;;;5.93;3.08;;;22.20;43.80;;;;;;5035453;28;20498;-72
2021/06/15 07:47:54;;;;;;;8.15;2.72;;;22.30;44.10;;;;;;5039460;28;20024;-72
2021/06/15 07:50:20;;;;;;;6.63;3.65;;;22.40;44.10;;;;;;5039512;28;20116;-72
2021/06/15 07:52:46;;;;;;;4.45;3.33;;;22.40;43.90;;;;;;5044299;28;20528;-72
2021/06/15 07:55:14;;;;;;;10.55;5.30;;;22.50;44.60;;;;;;5042661;28;20020;-72
2021/06/15 07:57:40;;;;;;;5.30;2.40;;;22.70;45.40;;;;;;5037845;28;20091;-73
2021/06/15 08:00:08;;;;;;;3.78;2.38;;;22.80;44.80;;;;;;5045567;28;20017;-72
2021/06/15 08:02:34;;;;;;;5.10;2.65;;;22.90;43.80;;;;;;5038430;28;20486;-72
2021/06/15 08:05:00;;;;;;;6.63;3.15;;;22.90;42.50;;;;;;5042625;28;20033;-72
2021/06/15 08:07:25;;;;;;;4.38;2.90;;;22.80;43.10;;;;;;5039891;28;20037;-72
2021/06/15 08:09:51;;;;;;;5.22;2.38;;;22.60;42.60;;;;;;5035944;28;20119;-72
2021/06/15 08:12:18;;;;;;;8.63;3.38;;;22.70;43.20;;;;;;5036511;28;20105;-73
2021/06/15 08:14:44;;;;;;;5.18;2.40;;;22.80;43.80;;;;;;5044377;28;20368;-72
2021/06/15 08:17:10;;;;;;;6.30;2.25;;;22.90;44.90;;;;;;5042172;28;20036;-72
2021/06/15 08:19:35;;;;;;;4.70;2.75;;;23.10;43.70;;;;;;5038977;28;20108;-72
2021/06/15 08:22:01;;;;;;;3.67;2.63;;;22.90;42.00;;;;;;5043754;28;20147;-73
2021/06/15 08:24:27;;;;;;;4.65;2.72;;;22.80;41.40;;;;;;5041138;28;20359;-72
2021/06/15 08:26:52;;;;;;;3.97;2.75;;;23.00;42.10;;;;;;5037156;28;20449;-73
2021/06/15 08:29:18;;;;;;;3.83;2.90;;;23.00;41.00;;;;;;5044220;28;20023;-72
2021/06/15 08:31:44;;;;;;;5.63;2.35;;;22.90;42.00;;;;;;5052107;28;20021;-73
2021/06/15 08:34:09;;;;;;;5.40;2.70;;;22.80;41.30;;;;;;5039527;28;20033;-72
2021/06/15 08:36:36;;;;;;;3.60;2.40;;;22.90;42.20;;;;;;5047627;28;20215;-73
2021/06/15 08:39:04;;;;;;;6.50;3.08;;;23.00;41.10;;;;;;5043641;28;20535;-72
2021/06/15 08:41:31;;;;;;;3.97;2.88;;;23.00;41.20;;;;;;5040300;28;20045;-73
2021/06/15 08:43:57;;;;;;;4.35;2.28;;;23.10;41.40;;;;;;5047586;28;20103;-73
2021/06/15 08:46:23;;;;;;;2.92;2.47;;;23.10;40.90;;;;;;5047760;28;20109;-73
2021/06/15 08:48:49;;;;;;;4.72;2.35;;;23.20;39.90;;;;;;5041894;28;20469;-73
2021/06/15 08:51:15;;;;;;;5.20;2.33;;;23.30;39.40;;;;;;5038695;28;20018;-73
2021/06/15 08:53:40;;;;;;;8.00;3.03;;;23.40;39.30;;;;;;5032229;28;20065;-73
2021/06/15 08:56:28;;;;;;;4.68;2.30;;;23.50;38.90;;;;;;5030644;28;20120;-73
2021/06/15 08:59:18;;;;;;;4.80;1.90;;;23.70;38.40;;;;;;5031086;28;20029;-73
2021/06/15 09:01:49;;;;;;;2.88;2.33;;;23.90;39.10;;;;;;5030827;28;20029;-73
2021/06/15 09:04:15;;;;;;;8.07;2.85;;;24.20;39.70;;;;;;5031999;28;20064;-73
2021/06/15 09:06:41;;;;;;;28.58;5.00;;;24.20;38.70;;;;;;5032078;28;20454;-73
2021/06/15 09:09:07;;;;;;;13.98;3.58;;;24.10;38.90;;;;;;5032167;28;20096;-73
2021/06/15 09:11:46;;;;;;;2.63;2.33;;;23.90;38.90;;;;;;5032895;28;20053;-73
2021/06/15 09:14:13;;;;;;;4.00;2.03;;;23.80;37.70;;;;;;5043571;28;20025;-73
2021/06/15 09:16:47;;;;;;;4.57;2.20;;;23.80;37.80;;;;;;5052694;28;20498;-73
2021/06/15 09:19:23;;;;;;;3.33;2.60;;;23.70;37.90;;;;;;5052677;28;20104;-73
2021/06/15 09:21:52;;;;;;;3.25;2.60;;;23.90;38.10;;;;;;5051417;28;20040;-73
2021/06/15 09:24:23;;;;;;;15.63;3.50;;;24.00;37.80;;;;;;5052576;28;20025;-73
2021/06/15 09:26:55;;;;;;;7.72;2.40;;;24.30;38.70;;;;;;5052630;28;20048;-73
2021/06/15 09:29:36;;;;;;;13.30;3.43;;;24.30;37.90;;;;;;5049908;28;20106;-73
2021/06/15 09:32:02;;;;;;;6.30;2.67;;;24.60;37.90;;;;;;5051030;28;20033;-73
2021/06/15 09:34:28;;;;;;;3.28;2.35;;;24.50;36.80;;;;;;5051991;28;20033;-73
2021/06/15 09:36:54;;;;;;;2.92;2.33;;;24.60;36.70;;;;;;5051147;28;20048;-73
2021/06/15 09:39:20;;;;;;;12.07;3.08;;;24.50;37.10;;;;;;5051169;28;20024;-73
2021/06/15 09:41:48;;;;;;;4.57;2.30;;;24.50;36.30;;;;;;5052625;28;20025;-73
2021/06/15 09:44:22;;;;;;;6.28;2.05;;;24.50;36.00;;;;;;5052122;28;20474;-73
2021/06/15 09:46:54;;;;;;;4.53;2.22;;;24.40;35.80;;;;;;5052549;28;20043;-73
2021/06/15 09:49:37;;;;;;;7.75;2.63;;;24.30;35.20;;;;;;5051188;28;20027;-73
2021/06/15 09:52:13;;;;;;;;;;;24.30;35.80;;;;;;5052737;28;20091;-73
2021/06/15 09:54:50;;;;;;;5.90;2.60;;;24.00;37.50;;;;;;5052024;28;20348;-73
2021/06/15 09:57:29;;;;;;;8.27;2.53;;;24.20;38.70;;;;;;5052104;28;20033;-73
2021/06/15 10:00:07;;;;;;;15.98;3.97;;;24.50;38.50;;;;;;5052704;28;20036;-73
2021/06/15 10:02:33;;;;;;;6.13;2.30;;;24.70;37.30;;;;;;5055979;28;20134;-74
2021/06/15 10:05:22;;;;;;;4.70;2.45;;;25.00;37.30;;;;;;5055836;28;20029;-74
2021/06/15 10:07:49;;;;;;;5.43;2.05;;;25.30;37.40;;;;;;5056239;28;20033;-74
2021/06/15 10:10:20;;;;;;;4.70;2.20;;;25.30;36.20;;;;;;5054494;28;20050;-74
2021/06/15 10:12:47;;;;;;;5.35;2.28;;;25.20;35.80;;;;;;5055627;28;20014;-74
2021/06/15 10:15:13;;;;;;;7.93;3.17;;;25.40;36.30;;;;;;5054311;28;20040;-73
2021/06/15 10:17:41;;;;;;;3.97;2.63;;;25.50;36.00;;;;;;5054201;28;20033;-73
2021/06/15 10:20:07;;;;;;;3.33;2.20;;;25.30;35.70;;;;;;5055357;28;20053;-74
2021/06/15 10:22:33;;;;;;;2.63;1.73;;;25.60;36.20;;;;;;5054368;28;20047;-74
2021/06/15 10:24:59;;;;;;;5.22;2.22;;;25.60;36.30;;;;;;5055405;28;20036;-74
2021/06/15 10:27:24;;;;;;;4.70;2.45;;;25.30;35.80;;;;;;5055323;28;20028;-73
2021/06/15 10:29:52;;;;;;;4.68;2.78;;;25.00;35.90;;;;;;5040688;28;20033;-74
2021/06/15 10:32:23;;;;;;;3.45;2.05;;;25.00;36.40;;;;;;5035424;28;20491;-73
2021/06/15 10:34:56;;;;;;;2.97;2.00;;;25.20;36.50;;;;;;5035444;28;20017;-74
2021/06/15 10:37:31;;;;;;;3.30;2.90;;;25.30;36.50;;;;;;5034058;28;20106;-74
2021/06/15 10:39:58;;;;;;;4.25;2.40;;;25.50;36.70;;;;;;5035298;28;20021;-74
2021/06/15 10:42:24;;;;;;;3.17;2.22;;;25.80;36.50;;;;;;5035388;28;20040;-74
2021/06/15 10:45:17;;;;;;;6.63;2.47;;;26.00;36.60;;;;;;5053932;28;20028;-74
2021/06/15 10:48:05;;;;;;;3.30;2.28;;;26.20;36.60;;;;;;5050431;28;20171;-73
2021/06/15 10:50:36;;;;;;;4.97;2.28;;;26.00;35.00;;;;;;5055095;28;20104;-74
2021/06/15 10:53:04;;;;;;;2.63;2.20;;;25.80;34.30;;;;;;5053852;28;20037;-73
2021/06/15 10:55:45;;;;;;;4.28;2.40;;;25.80;34.00;;;;;;5053197;28;20044;-73
2021/06/15 10:58:11;;;;;;;12.77;3.13;;;25.70;34.30;;;;;;5054614;28;20021;-73
2021/06/15 11:00:45;;;;;;;6.05;2.60;;;25.50;34.80;;;;;;5054891;28;20029;-73
2021/06/15 11:03:29;;;;;;;3.90;1.95;;;25.70;36.00;;;;;;5053152;28;20029;-74
2021/06/15 11:05:59;;;;;;;3.38;2.35;;;25.80;35.80;;;;;;5054772;28;20528;-74
2021/06/15 11:08:30;;;;;;;5.35;2.15;;;25.80;35.90;;;;;;5054625;28;20025;-74
2021/06/15 11:10:58;;;;;;;6.55;2.40;;;26.10;35.60;;;;;;5053760;28;20025;-74
2021/06/15 11:13:53;;;;;;;4.47;2.40;;;26.30;36.00;;;;;;5045046;28;20021;-74
2021/06/15 11:16:42;;;;;;;4.10;2.38;;;26.20;35.20;;;;;;5034561;28;20069;-74
2021/06/15 11:19:11;;;;;;;3.78;2.42;;;26.20;35.30;;;;;;5034632;28;20668;-74
2021/06/15 11:21:45;;;;;;;4.18;2.33;;;25.80;35.10;;;;;;5034655;28;20036;-74
2021/06/15 11:24:23;;;;;;;4.22;2.47;;;25.70;35.50;;;;;;5049860;28;20021;-74
2021/06/15 11:26:51;;;;;;;4.35;2.22;;;25.60;35.70;;;;;;5052979;28;20128;-74
2021/06/15 11:29:37;;;;;;;5.40;2.53;;;25.80;36.10;;;;;;5052122;28;20028;-74
2021/06/15 11:32:17;;;;;;;5.18;2.40;;;25.80;36.10;;;;;;5045258;28;20125;-74
2021/06/15 11:35:03;;;;;;;4.30;2.72;;;26.10;36.80;;;;;;5034299;28;20117;-74
2021/06/15 11:37:33;;;;;;;5.25;2.22;;;26.20;36.40;;;;;;5029196;28;20498;-74
2021/06/15 11:40:17;;;;;;;4.80;2.65;;;26.30;35.30;;;;;;5052810;28;20482;-74
2021/06/15 11:42:51;;;;;;;4.28;2.60;;;26.60;35.40;;;;;;5052903;28;20036;-74
2021/06/15 11:45:22;;;;;;;4.63;2.53;;;26.70;34.40;;;;;;5052789;28;20037;-74
2021/06/15 11:47:52;;;;;;;2.97;2.20;;;26.80;33.40;;;;;;5052844;28;20110;-74
2021/06/15 11:50:27;;;;;;;5.88;2.58;;;26.80;35.00;;;;;;5053937;28;20267;-74
2021/06/15 11:53:08;;;;;;;5.07;2.67;;;26.60;36.20;;;;;;5053672;28;20021;-74
2021/06/15 11:55:35;;;;;;;5.55;2.42;;;26.80;37.00;;;;;;5052459;28;20025;-74
2021/06/15 11:58:35;;;;;;;5.50;2.83;;;26.80;35.60;;;;;;5053040;28;20025;-75
2021/06/15 12:01:04;;;;;;;4.50;2.38;;;26.40;37.00;;;;;;5045825;28;20495;-76
2021/06/15 12:03:35;;;;;;;5.00;2.20;;;26.10;39.40;;;;;;5033082;28;20510;-76
2021/06/15 12:06:00;;;;;;;3.97;2.63;;;25.90;38.90;;;;;;5032407;28;20029;-76
2021/06/15 12:08:40;;;;;;;4.43;2.35;;;25.80;38.90;;;;;;5033724;28;20072;-74
2021/06/15 12:11:10;;;;;;;3.97;2.00;;;25.80;38.40;;;;;;5046306;28;20458;-74
2021/06/15 12:13:37;;;;;;;4.75;1.92;;;25.90;37.10;;;;;;5052703;28;20107;-74
2021/06/15 12:16:27;;;;;;;8.15;2.70;;;25.90;36.50;;;;;;5053352;28;20033;-74
2021/06/15 12:18:57;;;;;;;3.15;2.05;;;26.00;36.90;;;;;;5053269;28;20013;-74
2021/06/15 12:21:35;;;;;;;3.22;2.45;;;26.10;37.20;;;;;;5053353;28;20497;-74
2021/06/15 12:24:06;;;;;;;7.35;2.28;;;26.20;37.40;;;;;;5052787;28;20059;-74
2021/06/15 12:26:50;;;;;;;6.07;2.08;;;26.10;37.90;;;;;;5052664;28;20068;-74
2021/06/15 12:29:18;;;;;;;3.47;2.08;;;25.70;37.70;;;;;;5042343;28;20049;-74
2021/06/15 12:31:46;;;;;;;4.00;2.30;;;25.40;38.70;;;;;;5032300;28;20024;-74
2021/06/15 12:34:16;;;;;;;3.25;2.28;;;25.50;38.20;;;;;;5050838;28;20036;-74
2021/06/15 12:36:46;;;;;;;3.85;2.30;;;25.80;37.70;;;;;;5053105;28;20033;-74
2021/06/15 12:39:15;;;;;;;3.70;2.58;;;25.80;38.90;;;;;;5052883;28;20017;-74
2021/06/15 12:41:45;;;;;;;3.28;2.20;;;25.50;38.80;;;;;;5052726;28;20032;-74
2021/06/15 12:44:12;;;;;;;2.58;2.28;;;25.40;39.10;;;;;;5052455;28;20032;-74
2021/06/15 12:46:39;;;;;;;4.78;2.75;;;25.50;39.90;;;;;;5052994;28;20055;-74
2021/06/15 12:49:22;;;;;;;6.20;2.08;;;25.70;39.90;;;;;;5052840;28;20438;-74
2021/06/15 12:51:53;;;;;;;7.40;3.28;;;25.90;39.50;;;;;;5051254;28;20043;-74
2021/06/15 12:54:24;;;;;;;6.05;2.63;;;26.00;39.60;;;;;;5052521;28;20025;-74
2021/06/15 12:57:06;;;;;;;5.40;2.75;;;25.90;37.30;;;;;;5032887;28;20029;-74
2021/06/15 12:59:34;;;;;;;3.03;2.60;;;26.30;37.30;;;;;;5037842;28;20410;-74
2021/06/15 13:02:12;;;;;;;3.47;2.60;;;26.50;38.00;;;;;;5040312;28;20471;-74
2021/06/15 13:04:55;;;;;;;5.68;2.90;;;26.70;37.20;;;;;;5040570;28;20474;-74
2021/06/15 13:07:21;;;;;;;;;;;26.90;37.50;;;;;;5039673;28;20013;-74
2021/06/15 13:09:48;;;;;;;4.82;2.72;;;26.80;35.70;;;;;;5039856;28;19924;-74